Time;durP1;ratioP1;P1;durP2;ratioP2;P2;SDS_P1;SDS_P2;PMS_P1;PMS_P2;Temp;Humidity;BMP_temperature;BMP_pressure;BME280_temperature;BME280_humidity;BME280_pressure;Samples;Min_cycle;Max_cycle;Signal;HPM_P1;HPM_P2
2024/03/07 00:02:10;;;;;;;55.50;24.58;;;;;;;-146.27;84.80;45715.63;5065559;28;20078;-71
2024/03/07 00:04:36;;;;;;;54.70;25.73;;;;;;;-146.27;85.49;45717.63;5070939;28;20020;-71
2024/03/07 00:07:05;;;;;;;51.10;25.58;;;;;;;-146.27;85.31;45719.63;5070658;28;20138;-71
2024/03/07 00:09:32;;;;;;;49.28;23.20;;;;;;;-146.27;84.99;45703.69;5070639;28;20016;-72
2024/03/07 00:11:57;;;;;;;49.60;25.20;;;;;;;-146.27;85.03;45715.63;5068419;28;20036;-71
2024/03/07 00:14:26;;;;;;;47.83;24.58;;;;;;;-146.27;85.24;45701.69;5068619;28;20044;-71
2024/03/07 00:16:53;;;;;;;51.70;25.33;;;;;;;-146.27;85.46;45731.56;5069615;28;20144;-71
2024/03/07 00:19:18;;;;;;;48.47;24.98;;;;;;;-146.27;85.47;45719.63;5066742;28;20029;-71
2024/03/07 00:21:43;;;;;;;55.60;26.08;;;;;;;-146.27;85.70;45711.66;5070620;28;20664;-71
2024/03/07 00:24:09;;;;;;;57.45;25.92;;;;;;;-146.27;85.19;45717.63;5070590;28;20068;-72
2024/03/07 00:26:34;;;;;;;53.83;25.83;;;;;;;-146.27;84.86;45735.53;5066167;28;20043;-71
2024/03/07 00:29:00;;;;;;;52.25;26.00;;;;;;;-146.27;85.04;45729.56;5067694;28;20503;-71
2024/03/07 00:31:26;;;;;;;51.17;24.42;;;;;;;-146.27;85.31;45713.66;5065824;28;20444;-71
2024/03/07 00:33:51;;;;;;;50.38;24.15;;;;;;;-146.27;84.99;45747.47;5057898;28;20408;-70
2024/03/07 00:36:17;;;;;;;49.75;25.15;;;;;;;-146.27;85.51;45727.56;5063952;28;20031;-71
2024/03/07 00:38:42;;;;;;;48.28;24.23;;;;;;;-146.27;85.39;45751.47;5070439;28;20020;-71
2024/03/07 00:41:08;;;;;;;50.28;25.85;;;;;;;-146.27;84.86;45759.44;5068700;28;20539;-71
2024/03/07 00:43:33;;;;;;;55.45;24.92;;;;;;;-146.27;85.48;45743.50;5066162;28;20020;-71
2024/03/07 00:45:59;;;;;;;52.15;24.40;;;;;;;-146.27;84.66;45775.34;5070673;28;20032;-71
2024/03/07 00:48:24;;;;;;;53.28;25.00;;;;;;;-146.27;84.74;45777.34;5064000;28;20396;-71
2024/03/07 00:50:50;;;;;;;52.53;25.52;;;;;;;-146.27;85.01;45795.25;5067743;28;20111;-71
2024/03/07 00:53:15;;;;;;;52.17;25.52;;;;;;;-146.27;85.15;45803.22;5065054;28;20055;-71
2024/03/07 00:55:41;;;;;;;51.65;25.42;;;;;;;-146.27;84.93;45789.28;5070560;28;20479;-70
2024/03/07 00:58:06;;;;;;;52.80;24.67;;;;;;;-146.27;84.69;45795.25;5069550;28;20380;-70
2024/03/07 01:00:31;;;;;;;53.15;25.17;;;;;;;-146.27;85.40;45757.44;5070298;28;20042;-69
2024/03/07 01:02:57;;;;;;;58.72;25.83;;;;;;;-146.27;85.70;45729.56;5068459;28;20028;-72
2024/03/07 01:05:22;;;;;;;56.40;26.27;;;;;;;-146.27;85.62;45755.44;5067321;28;20020;-70
2024/03/07 01:07:48;;;;;;;58.42;26.13;;;;;;;-146.27;85.97;45749.47;5069907;28;20454;-71
2024/03/07 01:10:15;;;;;;;51.15;24.98;;;;;;;-146.27;85.68;45759.44;5068300;28;20013;-72
2024/03/07 01:12:43;;;;;;;59.83;25.77;;;;;;;-146.27;85.75;45755.44;5067709;28;20017;-75
2024/03/07 01:15:10;;;;;;;56.88;25.55;;;;;;;-146.27;85.88;45775.34;5070082;28;20139;-74
2024/03/07 01:17:35;;;;;;;53.90;25.33;;;;;;;-146.27;85.85;45767.38;5067644;28;20016;-76
2024/03/07 01:20:01;;;;;;;58.00;26.80;;;;;;;-146.27;85.97;45769.38;5069019;28;20039;-75
2024/03/07 01:22:26;;;;;;;51.17;24.65;;;;;;;-146.27;86.32;45755.44;5075207;28;20016;-76
2024/03/07 01:24:52;;;;;;;55.80;25.33;;;;;;;-146.27;85.94;45737.53;5068051;28;20039;-76
2024/03/07 01:27:18;;;;;;;52.03;24.98;;;;;;;-146.27;86.18;45737.53;5067312;28;20094;-76
2024/03/07 01:29:44;;;;;;;58.80;25.15;;;;;;;-146.27;85.92;45747.47;5068562;28;20032;-76
2024/03/07 01:32:10;;;;;;;59.58;26.88;;;;;;;-146.27;85.80;45739.53;5066656;28;20035;-76
2024/03/07 01:34:36;;;;;;;50.78;24.55;;;;;;;-146.27;85.85;45759.44;5063853;28;20025;-76
2024/03/07 01:37:01;;;;;;;55.55;25.38;;;;;;;-146.27;85.70;45783.31;5065118;28;20031;-76
2024/03/07 01:39:27;;;;;;;48.53;23.95;;;;;;;-146.27;85.15;45815.16;5067544;28;20111;-75
2024/03/07 01:41:52;;;;;;;54.08;24.58;;;;;;;-146.27;85.60;45791.28;5068976;28;20030;-76
2024/03/07 01:44:18;;;;;;;57.00;25.75;;;;;;;-146.27;86.05;45767.38;5069513;28;20130;-76
2024/03/07 01:46:43;;;;;;;63.15;26.20;;;;;;;-146.27;86.64;45777.34;5069324;28;20385;-74
2024/03/07 01:49:10;;;;;;;57.03;25.83;;;;;;;-146.27;85.49;45793.25;5066844;28;20468;-76
2024/03/07 01:51:37;;;;;;;57.75;26.23;;;;;;;-146.27;86.14;45767.38;5060760;28;20047;-76
2024/03/07 01:54:03;;;;;;;53.35;24.75;;;;;;;-146.27;86.46;45777.34;5063088;28;20029;-75
2024/03/07 01:56:29;;;;;;;51.28;24.17;;;;;;;-146.27;85.35;45783.31;5069964;28;20236;-75
2024/03/07 01:58:56;;;;;;;55.00;26.08;;;;;;;-146.27;85.51;45791.28;5069298;28;20052;-76
2024/03/07 02:01:22;;;;;;;56.03;24.77;;;;;;;-146.27;85.14;45811.19;5068985;28;20062;-76
2024/03/07 02:03:48;;;;;;;48.03;24.20;;;;;;;-146.27;85.24;45825.09;5066637;28;20488;-75
2024/03/07 02:06:14;;;;;;;50.08;24.27;;;;;;;-146.27;85.55;45845.00;5069590;28;20036;-76
2024/03/07 02:08:40;;;;;;;55.70;23.13;;;;;;;-146.27;85.89;45811.19;5069645;28;20024;-75
2024/03/07 02:11:05;;;;;;;53.25;24.20;;;;;;;-146.27;85.98;45805.19;5068918;28;20089;-75
2024/03/07 02:13:31;;;;;;;49.90;23.88;;;;;;;-146.27;86.36;45803.22;5073411;28;20400;-75
2024/03/07 02:15:57;;;;;;;54.20;24.92;;;;;;;-146.27;85.98;45811.19;5072021;28;20036;-75
2024/03/07 02:18:23;;;;;;;49.60;24.77;;;;;;;-146.27;85.90;45825.09;5071659;28;20020;-76
2024/03/07 02:20:49;;;;;;;53.55;23.45;;;;;;;-146.27;86.18;45821.13;5073603;28;20043;-76
2024/03/07 02:23:14;;;;;;;56.13;25.98;;;;;;;-146.27;86.86;45815.16;5071159;28;20024;-74
2024/03/07 02:25:40;;;;;;;56.40;25.35;;;;;;;-146.27;86.21;45815.16;5068792;28;20107;-74
2024/03/07 02:28:06;;;;;;;59.85;26.30;;;;;;;-146.27;85.88;45831.09;5064395;28;20040;-75
2024/03/07 02:30:32;;;;;;;53.83;25.65;;;;;;;-146.27;86.48;45833.06;5067150;28;20027;-75
2024/03/07 02:32:59;;;;;;;57.53;26.92;;;;;;;-146.27;86.18;45815.16;5066947;28;20028;-71
2024/03/07 02:35:25;;;;;;;54.45;25.23;;;;;;;-146.27;86.35;45813.16;5074590;28;20567;-70
2024/03/07 02:37:50;;;;;;;56.22;26.05;;;;;;;-146.27;86.57;45829.09;5073443;28;20021;-71
2024/03/07 02:40:16;;;;;;;49.38;24.67;;;;;;;-146.27;86.22;45799.22;5079325;28;20119;-69
2024/03/07 02:42:42;;;;;;;53.30;24.63;;;;;;;-146.27;86.21;45827.09;5072177;28;20051;-73
2024/03/07 02:45:08;;;;;;;55.70;27.02;;;;;;;-146.27;87.46;45805.19;5073147;28;20047;-71
2024/03/07 02:47:33;;;;;;;58.83;26.00;;;;;;;-146.27;87.10;45795.25;5069622;28;20564;-71
2024/03/07 02:49:58;;;;;;;59.08;26.75;;;;;;;-146.27;86.78;45813.16;5072526;28;20039;-70
2024/03/07 02:52:24;;;;;;;55.88;24.75;;;;;;;-146.27;86.37;45825.09;5071502;28;20025;-72
2024/03/07 02:54:49;;;;;;;53.58;26.15;;;;;;;-146.27;86.40;45793.25;5072468;28;20036;-70
2024/03/07 02:57:15;;;;;;;51.15;24.25;;;;;;;-146.27;86.37;45807.19;5071427;28;20396;-70
2024/03/07 02:59:41;;;;;;;57.10;26.02;;;;;;;-146.27;87.33;45799.22;5065827;28;20027;-71
2024/03/07 03:02:07;;;;;;;56.97;26.10;;;;;;;-146.27;86.89;45791.28;5062338;28;20029;-71
2024/03/07 03:04:33;;;;;;;56.45;26.42;;;;;;;-146.27;86.35;45807.19;5067214;28;20031;-71
2024/03/07 03:06:58;;;;;;;59.30;25.67;;;;;;;-146.27;86.99;45825.09;5071763;28;20048;-71
2024/03/07 03:09:24;;;;;;;57.38;25.70;;;;;;;-146.27;86.50;45843.03;5064428;28;20098;-72
2024/03/07 03:11:49;;;;;;;58.72;27.48;;;;;;;-146.27;87.24;45819.13;5065696;28;20025;-72
2024/03/07 03:14:15;;;;;;;60.40;27.20;;;;;;;-146.27;87.10;45809.19;5064632;28;20075;-71
2024/03/07 03:16:44;;;;;;;56.25;27.10;;;;;;;-146.27;87.35;45799.22;5063011;28;20033;-71
2024/03/07 03:19:10;;;;;;;59.03;27.58;;;;;;;-146.27;87.08;45811.19;5066455;28;20044;-72
2024/03/07 03:21:36;;;;;;;56.03;27.13;;;;;;;-146.27;87.25;45767.38;5059805;28;20115;-72
2024/03/07 03:24:02;;;;;;;59.30;27.63;;;;;;;-146.27;86.68;45807.19;5060807;28;20024;-71
2024/03/07 03:26:28;;;;;;;57.20;26.00;;;;;;;-146.27;87.01;45799.22;5063434;28;20496;-71
2024/03/07 03:28:53;;;;;;;59.95;27.35;;;;;;;-146.27;86.79;45815.16;5070087;28;20115;-72
2024/03/07 03:31:19;;;;;;;56.92;27.58;;;;;;;-146.27;87.15;45827.09;5065934;28;20513;-71
2024/03/07 03:33:45;;;;;;;60.05;26.73;;;;;;;-146.27;87.23;45805.19;5072571;28;20028;-71
2024/03/07 03:36:11;;;;;;;63.20;28.42;;;;;;;-146.27;87.51;45801.22;5071066;28;20082;-71
2024/03/07 03:38:36;;;;;;;57.72;27.17;;;;;;;-146.27;87.12;45827.09;5069747;28;20061;-70
2024/03/07 03:41:03;;;;;;;69.80;28.95;;;;;;;-146.27;87.62;45803.22;5069930;28;20032;-70
2024/03/07 03:43:29;;;;;;;65.65;29.83;;;;;;;-146.27;88.04;45789.28;5072524;28;20085;-70
2024/03/07 03:45:54;;;;;;;62.67;27.90;;;;;;;-146.27;87.97;45787.28;5071444;28;20393;-72
2024/03/07 03:48:19;;;;;;;63.95;28.05;;;;;;;-146.27;87.95;45791.28;5067395;28;20115;-71
2024/03/07 03:50:46;;;;;;;63.45;28.63;;;;;;;-146.27;88.11;45773.34;5063973;28;20598;-72
2024/03/07 03:53:11;;;;;;;70.00;30.98;;;;;;;-146.27;87.83;45767.38;5063963;28;20081;-70
2024/03/07 03:55:37;;;;;;;65.88;29.10;;;;;;;-146.27;87.83;45785.31;5062085;28;20107;-71
2024/03/07 03:58:05;;;;;;;77.43;30.95;;;;;;;-146.27;87.85;45771.38;5062881;28;20029;-71
2024/03/07 04:00:30;;;;;;;66.43;29.08;;;;;;;-146.27;88.08;45767.38;5067797;28;20028;-70
2024/03/07 04:02:56;;;;;;;65.50;29.83;;;;;;;-146.27;87.94;45729.56;5070674;28;20024;-70
2024/03/07 04:05:21;;;;;;;74.32;29.45;;;;;;;-146.27;88.08;45763.41;5073982;28;20029;-72
2024/03/07 04:07:47;;;;;;;62.80;28.35;;;;;;;-146.27;88.54;45739.53;5070091;28;20584;-70
2024/03/07 04:10:14;;;;;;;67.00;30.67;;;;;;;-146.27;88.23;45705.69;5068908;28;20029;-71
2024/03/07 04:12:41;;;;;;;69.68;30.75;;;;;;;-146.27;88.29;45687.78;5070542;28;20103;-71
2024/03/07 04:15:08;;;;;;;71.72;31.23;;;;;;;-146.27;88.51;45715.63;5072284;28;20028;-71
2024/03/07 04:17:34;;;;;;;72.20;31.73;;;;;;;-146.27;88.45;45673.84;5068885;28;20016;-70
2024/03/07 04:20:01;;;;;;;70.30;29.13;;;;;;;-146.27;88.81;45679.81;5071736;28;20033;-71
2024/03/07 04:22:27;;;;;;;70.68;29.77;;;;;;;-146.27;88.80;45655.94;5067468;28;20411;-72
2024/03/07 04:24:55;;;;;;;68.50;30.13;;;;;;;-146.27;88.89;45636.03;5067616;28;20396;-70
2024/03/07 04:27:21;;;;;;;73.20;31.60;;;;;;;-146.27;88.92;45643.97;5062339;28;20191;-70
2024/03/07 04:29:47;;;;;;;68.82;29.75;;;;;;;-146.27;88.41;45636.03;5069972;28;20517;-71
2024/03/07 04:32:13;;;;;;;71.32;31.13;;;;;;;-146.27;88.53;45632.03;5069074;28;20115;-71
2024/03/07 04:34:39;;;;;;;69.22;29.50;;;;;;;-146.27;88.35;45610.16;5066121;28;20036;-71
2024/03/07 04:37:04;;;;;;;69.90;29.95;;;;;;;-146.27;88.12;45596.22;5065813;28;20047;-70
2024/03/07 04:39:32;;;;;;;74.43;29.60;;;;;;;-146.27;87.83;45624.06;5066915;28;20024;-69
2024/03/07 04:42:05;;;;;;;70.85;30.83;;;;;;;-146.27;88.13;45612.13;5069392;28;20107;-71
2024/03/07 04:44:32;;;;;;;68.82;29.38;;;;;;;-146.27;87.76;45649.94;5068407;28;20055;-70
2024/03/07 04:46:59;;;;;;;66.32;28.58;;;;;;;-146.27;87.94;45632.03;5073014;28;20032;-71
2024/03/07 04:49:26;;;;;;;70.15;30.58;;;;;;;-146.27;87.88;45624.06;5069151;28;20103;-70
2024/03/07 04:51:53;;;;;;;70.63;29.15;;;;;;;-146.27;87.98;45604.19;5069055;28;20024;-70
2024/03/07 04:54:19;;;;;;;64.47;30.63;;;;;;;-146.27;87.94;45643.97;5070092;28;20392;-70
2024/03/07 04:56:45;;;;;;;66.57;28.75;;;;;;;-146.27;87.81;45604.19;5069445;28;20013;-70
2024/03/07 04:59:11;;;;;;;65.20;29.80;;;;;;;-146.27;87.78;45663.88;5069828;28;20020;-71
2024/03/07 05:01:38;;;;;;;69.68;31.50;;;;;;;-146.27;87.72;45647.97;5068171;28;20038;-69
2024/03/07 05:04:04;;;;;;;63.72;30.70;;;;;;;-146.27;87.81;45647.97;5070307;28;20123;-72
2024/03/07 05:06:29;;;;;;;61.47;29.13;;;;;;;-146.27;87.63;45659.91;5066998;28;20151;-71
2024/03/07 05:08:55;;;;;;;64.80;30.23;;;;;;;-146.27;87.70;45671.84;5069679;28;20099;-70
2024/03/07 05:11:21;;;;;;;75.05;31.08;;;;;;;-146.27;87.62;45709.66;5069955;28;20029;-71
2024/03/07 05:13:48;;;;;;;69.28;30.13;;;;;;;-146.27;87.84;45675.81;5067549;28;20116;-70
2024/03/07 05:16:13;;;;;;;64.13;29.40;;;;;;;-146.27;87.50;45651.94;5069841;28;20386;-71
2024/03/07 05:18:39;;;;;;;71.43;30.05;;;;;;;-146.27;87.56;45675.81;5068610;28;20032;-70
2024/03/07 05:21:35;;;;;;;61.63;28.77;;;;;;;-146.27;88.06;45689.75;5068374;28;20035;-71
2024/03/07 05:23:50;;;;;;;70.00;30.83;;;;;;;-146.27;87.81;45695.72;5066621;28;20044;-71
2024/03/07 05:26:15;;;;;;;68.90;30.17;;;;;;;-146.27;87.72;45697.72;5069434;28;20069;-70
2024/03/07 05:28:40;;;;;;;71.05;31.88;;;;;;;-146.27;87.97;45689.75;5067898;28;20020;-70
2024/03/07 05:31:05;;;;;;;66.45;29.60;;;;;;;-146.27;88.29;45725.59;5067768;28;20031;-70
2024/03/07 05:33:31;;;;;;;65.47;31.30;;;;;;;-146.27;88.38;45667.88;5066229;28;20024;-69
2024/03/07 05:36:13;;;;;;;65.82;30.08;;;;;;;-146.27;88.10;45703.69;5068960;28;20032;-69
2024/03/07 05:38:39;;;;;;;69.75;29.75;;;;;;;-146.27;87.99;45701.69;5066154;28;20017;-70
2024/03/07 05:41:04;;;;;;;66.78;28.70;;;;;;;-146.27;87.77;45699.72;5069054;28;20028;-69
2024/03/07 05:43:30;;;;;;;68.70;29.20;;;;;;;-146.27;88.08;45707.69;5069076;28;20043;-70
2024/03/07 05:45:56;;;;;;;68.15;30.38;;;;;;;-146.27;87.95;45719.63;5071510;28;20115;-70
2024/03/07 05:48:21;;;;;;;65.88;30.80;;;;;;;-146.27;87.89;45701.69;5069563;28;20446;-69
2024/03/07 05:50:47;;;;;;;67.63;29.60;;;;;;;-146.27;87.48;45697.72;5071219;28;20016;-70
2024/03/07 05:53:12;;;;;;;68.88;30.75;;;;;;;-146.27;87.69;45739.53;5069411;28;20071;-70
2024/03/07 05:55:37;;;;;;;68.38;28.75;;;;;;;-146.27;87.64;45723.59;5067599;28;20047;-71
2024/03/07 05:58:03;;;;;;;64.97;29.40;;;;;;;-146.27;88.28;45717.63;5068104;28;20393;-69
2024/03/07 06:00:28;;;;;;;66.43;29.25;;;;;;;-146.27;87.74;45735.53;5074905;28;20490;-70
2024/03/07 06:02:54;;;;;;;68.38;27.85;;;;;;;-146.27;87.80;45727.56;5055715;28;20119;-69
2024/03/07 06:05:19;;;;;;;58.05;28.15;;;;;;;-146.27;88.02;45743.50;5066350;28;20048;-70
2024/03/07 06:07:48;;;;;;;70.30;30.30;;;;;;;-146.27;87.93;45759.44;5062468;28;20028;-71
2024/03/07 06:10:16;;;;;;;65.05;29.35;;;;;;;-146.27;88.02;45739.53;5066529;28;20035;-71
2024/03/07 06:12:45;;;;;;;63.65;30.02;;;;;;;-146.27;87.64;45713.66;5071051;28;20032;-70
2024/03/07 06:15:11;;;;;;;63.15;28.75;;;;;;;-146.27;87.89;45747.47;5071454;28;20081;-70
2024/03/07 06:17:36;;;;;;;64.80;29.25;;;;;;;-146.27;87.71;45763.41;5078516;28;20051;-69
2024/03/07 06:20:02;;;;;;;67.00;29.20;;;;;;;-146.27;88.10;45767.38;5077153;28;20047;-68
2024/03/07 06:22:27;;;;;;;62.63;30.55;;;;;;;-146.27;87.81;45787.28;5057667;28;20079;-71
2024/03/07 06:24:53;;;;;;;71.05;31.33;;;;;;;-146.27;87.86;45767.38;5063896;28;20129;-71
2024/03/07 06:27:26;;;;;;;68.45;29.40;;;;;;;-146.27;88.01;45763.41;5066994;28;20036;-69
2024/03/07 06:29:53;;;;;;;;;;;;;;;-146.27;87.69;45771.38;5065704;28;20028;-70
2024/03/07 06:32:18;;;;;;;65.60;28.52;;;;;;;-146.27;87.38;45793.25;5069830;28;20078;-72
2024/03/07 06:34:44;;;;;;;64.03;28.80;;;;;;;-146.27;87.81;45797.25;5068224;28;20116;-71
2024/03/07 06:37:09;;;;;;;66.32;30.42;;;;;;;-146.27;87.57;45849.00;5069105;28;20063;-70
2024/03/07 06:39:34;;;;;;;65.15;30.00;;;;;;;-146.27;88.24;45847.00;5067135;28;20020;-73
2024/03/07 06:42:00;;;;;;;65.18;29.17;;;;;;;-146.27;88.02;45874.88;5061774;28;20465;-72
2024/03/07 06:44:26;;;;;;;68.95;30.92;;;;;;;-146.27;87.63;45854.97;5063280;28;20043;-74
2024/03/07 06:46:52;;;;;;;69.10;28.75;;;;;;;-146.27;87.73;45862.94;5068876;28;20431;-71
2024/03/07 06:49:17;;;;;;;62.15;29.00;;;;;;;-146.27;87.39;45898.75;5069322;28;20040;-71
2024/03/07 06:51:43;;;;;;;64.57;30.63;;;;;;;-146.27;87.64;45896.75;5068797;28;20032;-72
2024/03/07 06:54:09;;;;;;;68.72;29.52;;;;;;;-146.27;87.69;45904.72;5067942;28;20476;-72
2024/03/07 06:56:34;;;;;;;70.82;31.13;;;;;;;-146.27;87.46;45930.59;5068275;28;20045;-72
2024/03/07 06:59:04;;;;;;;68.80;30.20;;;;;;;-146.27;87.44;45942.53;5065279;28;20126;-74
2024/03/07 07:01:29;;;;;;;61.40;31.33;;;;;;;-146.27;87.43;45930.59;5074760;28;20021;-72
2024/03/07 07:03:57;;;;;;;73.90;32.70;;;;;;;-146.27;87.43;45986.34;5075447;28;20111;-72
2024/03/07 07:06:22;;;;;;;64.25;30.58;;;;;;;-146.27;87.35;45978.38;5075744;28;20539;-75
2024/03/07 07:08:47;;;;;;;65.55;29.55;;;;;;;-146.27;87.68;45974.41;5067889;28;20024;-72
2024/03/07 07:11:13;;;;;;;69.82;30.40;;;;;;;-146.27;87.29;45988.31;5071921;28;20028;-72
2024/03/07 07:13:38;;;;;;;62.45;29.58;;;;;;;-146.27;86.83;46016.19;5070796;28;20020;-72
2024/03/07 07:16:04;;;;;;;70.63;30.27;;;;;;;-146.27;87.28;46030.13;5082994;28;20484;-72
2024/03/07 07:18:30;;;;;;;68.55;31.42;;;;;;;-146.27;87.00;46040.09;5067126;28;20033;-72
2024/03/07 07:20:56;;;;;;;66.53;30.00;;;;;;;-146.27;87.05;46052.03;5070526;28;20027;-77
2024/03/07 07:23:23;;;;;;;69.60;31.77;;;;;;;-146.27;87.01;46002.25;5068853;28;20048;-77
2024/03/07 07:25:48;;;;;;;62.45;30.65;;;;;;;-146.27;86.99;46032.13;5073210;28;20099;-77
2024/03/07 07:28:15;;;;;;;65.40;30.15;;;;;;;-146.27;86.87;46018.19;5065005;28;20508;-76
2024/03/07 07:30:40;;;;;;;62.55;29.73;;;;;;;-146.27;86.79;45988.31;5068950;28;20492;-75
2024/03/07 07:33:06;;;;;;;68.18;30.13;;;;;;;-146.27;86.59;45998.28;5069685;28;20028;-74
2024/03/07 07:35:34;;;;;;;69.00;31.30;;;;;;;-146.27;86.68;46002.25;5069633;28;20033;-74
2024/03/07 07:38:00;;;;;;;65.70;28.40;;;;;;;-146.27;86.83;46022.16;5067637;28;20039;-74
2024/03/07 07:40:27;;;;;;;67.68;29.98;;;;;;;-146.27;86.45;46018.19;5070228;28;20033;-74
2024/03/07 07:42:53;;;;;;;59.25;30.13;;;;;;;-146.27;86.26;46010.22;5070807;28;20032;-74
2024/03/07 07:45:21;;;;;;;62.42;29.77;;;;;;;-146.27;86.25;46040.09;5068427;28;20307;-74
2024/03/07 07:47:49;;;;;;;60.75;29.42;;;;;;;-146.27;85.95;46022.16;5069365;28;20032;-75
2024/03/07 07:50:20;;;;;;;62.70;30.42;;;;;;;-146.27;86.08;46024.16;5071663;28;20032;-75
2024/03/07 07:52:56;;;;;;;65.85;32.15;;;;;;;-146.27;86.02;46022.16;5071441;28;20115;-74
2024/03/07 07:55:25;;;;;;;60.45;30.67;;;;;;;-146.27;85.70;46020.19;5072073;28;20449;-73
2024/03/07 07:57:54;;;;;;;63.35;29.60;;;;;;;-146.27;85.67;45996.28;5070366;28;20024;-73
2024/03/07 08:00:22;;;;;;;62.35;31.00;;;;;;;-146.27;85.85;45988.31;5070744;28;20047;-74
2024/03/07 08:02:52;;;;;;;65.47;30.92;;;;;;;-146.27;85.32;46020.19;5069939;28;20031;-75
2024/03/07 08:05:25;;;;;;;61.25;29.23;;;;;;;-146.27;85.03;46022.16;5071680;28;20478;-74
2024/03/07 08:07:52;;;;;;;60.25;29.73;;;;;;;-146.27;85.43;46008.22;5066908;28;20032;-74
2024/03/07 08:10:23;;;;;;;58.40;29.35;;;;;;;-146.27;84.70;45998.28;5070178;28;20032;-74
2024/03/07 08:12:48;;;;;;;59.00;28.65;;;;;;;-146.27;84.46;45998.28;5070009;28;20409;-75
2024/03/07 08:15:15;;;;;;;65.90;28.77;;;;;;;-146.27;84.25;46030.13;5071260;28;20025;-73
2024/03/07 08:17:43;;;;;;;59.28;29.50;;;;;;;-146.27;84.02;46026.16;5070120;28;20078;-74
2024/03/07 08:20:14;;;;;;;56.10;27.05;;;;;;;-146.27;83.91;46026.16;5069814;28;20035;-74
2024/03/07 08:22:40;;;;;;;63.10;27.80;;;;;;;-146.27;84.04;46018.19;5068945;28;20032;-76
2024/03/07 08:25:10;;;;;;;60.28;28.55;;;;;;;-146.27;83.68;45998.28;5071005;28;20493;-73
2024/03/07 08:27:37;;;;;;;58.63;27.40;;;;;;;-146.27;83.36;45996.28;5057016;28;20053;-74
2024/03/07 08:30:06;;;;;;;50.47;26.10;;;;;;;-146.27;83.71;46010.22;5057966;28;20020;-74
2024/03/07 08:32:34;;;;;;;60.58;28.25;;;;;;;-146.27;83.38;45988.31;5092819;28;20496;-75
2024/03/07 08:34:59;;;;;;;55.25;26.15;;;;;;;-146.27;82.81;45998.28;5069618;28;20236;-76
2024/03/07 08:37:25;;;;;;;49.22;25.20;;;;;;;-146.27;82.38;46004.25;5067371;28;20020;-75
2024/03/07 08:39:52;;;;;;;59.08;26.10;;;;;;;-146.27;81.87;46052.03;5069272;28;20074;-75
2024/03/07 08:42:17;;;;;;;51.60;26.75;;;;;;;-146.27;81.50;46034.09;5071139;28;20036;-74
2024/03/07 08:44:43;;;;;;;52.72;25.88;;;;;;;-146.27;81.10;46044.06;5071144;28;20040;-73
2024/03/07 08:47:09;;;;;;;49.33;25.58;;;;;;;-146.27;80.68;46069.94;5070998;28;20040;-75
2024/03/07 08:49:35;;;;;;;49.53;24.23;;;;;;;-146.27;80.73;45998.28;5069977;28;20028;-75
2024/03/07 08:52:01;;;;;;;51.60;24.60;;;;;;;-146.27;80.37;46032.13;5069496;28;20090;-75
2024/03/07 08:54:26;;;;;;;46.35;25.15;;;;;;;-146.27;80.24;46030.13;5069026;28;20055;-75
2024/03/07 08:56:52;;;;;;;44.53;22.77;;;;;;;-146.27;79.85;46075.91;5070133;28;20044;-75
2024/03/07 08:59:17;;;;;;;43.70;23.05;;;;;;;-146.27;79.23;46065.97;5068202;28;20023;-74
2024/03/07 09:01:43;;;;;;;42.95;22.77;;;;;;;-146.27;79.29;46109.75;5067446;28;20104;-74
2024/03/07 09:04:09;;;;;;;44.90;21.25;;;;;;;-146.27;78.33;46052.03;5069339;28;20115;-75
2024/03/07 09:06:34;;;;;;;39.53;21.55;;;;;;;-146.27;77.76;46095.81;5070315;28;20020;-75
2024/03/07 09:09:00;;;;;;;38.45;21.17;;;;;;;-146.27;76.94;46081.88;5070094;28;20602;-75
2024/03/07 09:11:25;;;;;;;38.65;20.52;;;;;;;-146.27;76.85;46093.81;5068580;28;20083;-75
2024/03/07 09:13:50;;;;;;;42.08;20.95;;;;;;;-146.27;76.04;46089.84;5068901;28;20057;-77
2024/03/07 09:16:16;;;;;;;40.65;21.40;;;;;;;-146.27;76.01;46075.91;5068625;28;20473;-76
2024/03/07 09:18:42;;;;;;;39.35;21.55;;;;;;;-146.27;75.65;46097.81;5064907;28;20016;-76
2024/03/07 09:21:07;;;;;;;36.45;20.70;;;;;;;-146.27;75.12;46054.00;5058108;28;20028;-75
2024/03/07 09:23:32;;;;;;;38.10;19.40;;;;;;;-146.27;74.55;46065.97;5069735;28;20034;-77
2024/03/07 09:25:58;;;;;;;35.10;19.30;;;;;;;-146.27;73.50;46075.91;5069703;28;20021;-77
2024/03/07 09:28:24;;;;;;;36.88;19.90;;;;;;;-146.27;72.88;46054.00;5067991;28;20097;-75
2024/03/07 09:30:49;;;;;;;35.28;18.90;;;;;;;-146.27;71.42;46079.91;5070232;28;20477;-75
2024/03/07 09:33:19;;;;;;;36.97;19.10;;;;;;;-146.27;70.67;46040.09;5070250;28;20541;-76
2024/03/07 09:35:44;;;;;;;30.63;17.83;;;;;;;-146.27;69.74;46073.91;5068944;28;20474;-77
2024/03/07 09:38:11;;;;;;;33.70;18.70;;;;;;;-146.27;69.47;46042.06;5062954;28;20021;-75
2024/03/07 09:40:37;;;;;;;35.60;19.02;;;;;;;-146.27;68.10;46159.50;5064480;28;20058;-75
2024/03/07 09:43:03;;;;;;;33.92;17.02;;;;;;;-146.27;67.00;46093.81;5067092;28;20142;-77
2024/03/07 09:45:31;;;;;;;33.88;17.55;;;;;;;-146.27;65.98;46143.59;5067870;28;20031;-78
2024/03/07 09:47:57;;;;;;;31.83;17.95;;;;;;;-146.27;65.31;46137.63;5068121;28;20028;-77
2024/03/07 09:50:25;;;;;;;37.85;19.27;;;;;;;-146.27;66.18;46117.72;5056165;28;20021;-77
2024/03/07 09:52:55;;;;;;;27.67;16.80;;;;;;;-146.27;64.46;46181.41;5070108;28;20060;-78
2024/03/07 09:55:21;;;;;;;34.95;17.23;;;;;;;-146.27;64.43;46165.50;5069360;28;20123;-76
2024/03/07 09:57:48;;;;;;;28.17;16.20;;;;;;;-146.27;62.98;46147.56;5067044;28;20385;-78
2024/03/07 10:00:22;;;;;;;26.33;16.50;;;;;;;-146.27;63.37;46129.66;5067699;28;20040;-78
2024/03/07 10:02:53;;;;;;;27.90;15.88;;;;;;;-146.27;62.67;46127.66;5069252;28;20039;-78
2024/03/07 10:05:19;;;;;;;23.27;13.77;;;;;;;-146.27;61.26;46229.19;5094804;28;20020;-74
2024/03/07 10:07:45;;;;;;;25.85;15.05;;;;;;;-146.27;59.67;46243.13;5068143;28;20060;-74
2024/03/07 10:10:11;;;;;;;24.70;15.73;;;;;;;-146.27;60.87;46177.44;5068343;28;20025;-77
2024/03/07 10:12:38;;;;;;;27.63;14.63;;;;;;;-146.27;60.51;46173.44;5068652;28;20020;-77
2024/03/07 10:15:10;;;;;;;22.23;13.82;;;;;;;-146.27;59.63;46197.34;5063491;28;20025;-74
2024/03/07 10:17:35;;;;;;;26.75;13.68;;;;;;;-146.27;58.97;46241.13;5066976;28;20381;-75
2024/03/07 10:20:01;;;;;;;25.25;14.75;;;;;;;-146.27;58.44;46229.19;5067693;28;20054;-76
2024/03/07 10:22:27;;;;;;;24.20;14.68;;;;;;;-146.27;58.71;46229.19;5067856;28;20507;-77
2024/03/07 10:24:55;;;;;;;24.20;14.50;;;;;;;-146.27;58.79;46259.06;5068604;28;20495;-78
2024/03/07 10:27:20;;;;;;;21.92;14.55;;;;;;;-146.27;59.47;46271.00;5067847;28;20048;-76
2024/03/07 10:29:47;;;;;;;22.23;14.80;;;;;;;-146.27;58.73;46213.25;5069696;28;20040;-79
2024/03/07 10:32:13;;;;;;;23.63;14.57;;;;;;;-146.27;58.03;46221.22;5069952;28;20458;-78
2024/03/07 10:34:39;;;;;;;25.58;13.73;;;;;;;-146.27;58.54;46177.44;5073377;28;20024;-77
2024/03/07 10:37:05;;;;;;;21.10;13.60;;;;;;;-146.27;56.92;46223.22;5073377;28;20027;-76
2024/03/07 10:39:31;;;;;;;20.83;14.35;;;;;;;-146.27;58.06;46193.34;5072067;28;20500;-76
2024/03/07 10:42:05;;;;;;;25.17;14.68;;;;;;;-146.27;57.93;46157.53;5070453;28;20080;-78
2024/03/07 10:44:31;;;;;;;23.35;13.18;;;;;;;-146.27;56.14;46169.47;5071850;28;20039;-75
2024/03/07 10:46:59;;;;;;;22.50;13.75;;;;;;;-146.27;57.13;46155.53;5072833;28;20020;-73
2024/03/07 10:49:28;;;;;;;20.67;13.70;;;;;;;-146.27;54.92;46145.59;5072779;28;20029;-73
2024/03/07 10:52:10;;;;;;;25.50;14.23;;;;;;;-146.27;54.30;46145.59;5071564;28;20467;-71
2024/03/07 10:55:08;;;;;;;17.95;13.15;;;;;;;-146.27;54.13;46123.69;5072127;28;20054;-70
2024/03/07 10:57:47;;;;;;;18.48;13.02;;;;;;;-146.27;53.01;46101.78;5071532;28;20047;-71
2024/03/07 11:00:29;;;;;;;19.90;12.20;;;;;;;-146.27;50.64;46153.53;5070668;28;20373;-71